Avalon Express — WDD7919 — position and weather

sailwx.info

Track history (hours):
 
Tides and Currents Weather Stations Pressure Air Temp Water Temp Dewpoint Dewpoint Depression Visibility Wind Speed Wind Dir Waves Ship Positions

Avalon Express

Owner: RGWT INC, San Pedro, CA. More information available from US FCC via Universal Licensing System and Coast Guard Vessel Documentation Center.

Last reported at 2015-Mar-03 02:33 UTC. Time now 2015-Mar-03 07:28 UTC.
Position N 33°45' W 118°16'.

Type: High speed craft. MMSI: 367192940.

Date/timePositionNaut miles runAvg speedWind from/ knotsBaromVisibWave heightAir tempDewpointWater temp
2015-Mar-03 02:33N 33°45' W 118°16'0 0.0
2015-Mar-02 22:33N 33°45' W 118°16'0 0.0
2015-Mar-02 21:33N 33°45' W 118°16'1 0.8
2015-Mar-02 20:29N 33°44' W 118°17'2311.7
2015-Mar-02 18:31N 33°21' W 118°19'2217.2
2015-Mar-02 17:15N 33°43' W 118°15'2 3.6
2015-Mar-02 16:33N 33°45' W 118°16'0 0.0
2015-Mar-02 15:33N 33°45' W 118°16'0 0.0
2015-Mar-02 14:33N 33°45' W 118°16'0 0.0
2015-Mar-02 02:32N 33°45' W 118°16'0 0.0
2015-Mar-01 22:33N 33°45' W 118°16'0 0.0
2015-Mar-01 21:33N 33°45' W 118°16'22 6.8
2015-Mar-01 18:16N 33°23' W 118°19'2220.8
2015-Mar-01 17:12N 33°45' W 118°16'0 0.2
2015-Mar-01 16:33N 33°45' W 118°16'0 0.0
2015-Mar-01 15:33N 33°45' W 118°16'0 0.0
2015-Mar-01 14:33N 33°45' W 118°16'0 0.0
2015-Mar-01 13:33N 33°45' W 118°16'0 0.0
2015-Mar-01 02:33N 33°45' W 118°16'0 0.0
2015-Feb-28 22:11N 33°45' W 118°16'0 0.0
2015-Feb-28 21:33N 33°45' W 118°16'24 7.8
2015-Feb-28 18:27N 33°21' W 118°19'24 8.2
2015-Feb-28 15:28N 33°45' W 118°16'0 0.0
2015-Feb-28 14:31N 33°45' W 118°16'0 0.0
2015-Feb-28 06:10N 33°45' W 118°16'0 0.0
2015-Feb-28 05:31N 33°45' W 118°16'0 0.0
2015-Feb-28 01:31N 33°45' W 118°16'0 0.0
2015-Feb-28 00:04N 33°45' W 118°16'0 0.0
2015-Feb-27 23:29N 33°45' W 118°16'0 0.0
2015-Feb-27 22:33N 33°45' W 118°16'0 0.0
2015-Feb-27 21:30N 33°45' W 118°16'0 0.0
2015-Feb-27 16:33N 33°45' W 118°16'0 0.0
2015-Feb-26 03:34N 33°45' W 118°16'0 0.0
2015-Feb-26 02:33N 33°45' W 118°16'1817.7
2015-Feb-26 01:33N 33°27' W 118°18'5 5.4
2015-Feb-26 00:33N 33°25' W 118°24'1010.1
2015-Feb-25 23:34N 33°35' W 118°21'1010.2
2015-Feb-25 22:33N 33°45' W 118°16'0 0.0
2015-Feb-25 21:34N 33°45' W 118°16'1 0.8
2015-Feb-25 20:33N 33°44' W 118°17'2311.4
2015-Feb-25 18:33N 33°21' W 118°19'2412.0
2015-Feb-25 16:33N 33°45' W 118°16'0 0.0
2015-Feb-25 15:22N 33°45' W 118°16'0 0.0
2015-Feb-25 14:28N 33°45' W 118°16'0 0.0
2015-Feb-25 13:32N 33°45' W 118°16'0 0.0
2015-Feb-24 03:11N 33°45' W 118°16'24 2.7
2015-Feb-23 18:12N 33°21' W 118°19'24 8.3
2015-Feb-23 15:16N 33°45' W 118°16'  
2015-Feb-21 05:07N 33°45' W 118°16'0 0.0
2015-Feb-21 04:03N 33°45' W 118°16'  
Track history (hours):
 
Tides and Currents Weather Stations Pressure Air Temp Water Temp Dewpoint Dewpoint Depression Visibility Wind Speed Wind Dir Waves Ship Positions

Avalon Express

Owner: RGWT INC, San Pedro, CA. More information available from US FCC via Universal Licensing System and Coast Guard Vessel Documentation Center.

Last reported at 2015-Mar-03 02:33 UTC. Time now 2015-Mar-03 07:28 UTC.
Position N 33°45' W 118°16'.

Type: High speed craft. MMSI: 367192940.

Date/timePositionNaut miles runAvg speedWind from/ knotsBaromVisibWave heightAir tempDewpointWater temp
2015-Mar-03 02:33N 33°45' W 118°16'0 0.0
2015-Mar-02 22:33N 33°45' W 118°16'0 0.0
2015-Mar-02 21:33N 33°45' W 118°16'1 0.8
2015-Mar-02 20:29N 33°44' W 118°17'2311.7
2015-Mar-02 18:31N 33°21' W 118°19'2217.2
2015-Mar-02 17:15N 33°43' W 118°15'2 3.6
2015-Mar-02 16:33N 33°45' W 118°16'0 0.0
2015-Mar-02 15:33N 33°45' W 118°16'0 0.0
2015-Mar-02 14:33N 33°45' W 118°16'0 0.0
2015-Mar-02 02:32N 33°45' W 118°16'0 0.0
2015-Mar-01 22:33N 33°45' W 118°16'0 0.0
2015-Mar-01 21:33N 33°45' W 118°16'22 6.8
2015-Mar-01 18:16N 33°23' W 118°19'2220.8
2015-Mar-01 17:12N 33°45' W 118°16'0 0.2
2015-Mar-01 16:33N 33°45' W 118°16'0 0.0
2015-Mar-01 15:33N 33°45' W 118°16'0 0.0
2015-Mar-01 14:33N 33°45' W 118°16'0 0.0
2015-Mar-01 13:33N 33°45' W 118°16'0 0.0
2015-Mar-01 02:33N 33°45' W 118°16'0 0.0
2015-Feb-28 22:11N 33°45' W 118°16'0 0.0
2015-Feb-28 21:33N 33°45' W 118°16'24 7.8
2015-Feb-28 18:27N 33°21' W 118°19'24 8.2
2015-Feb-28 15:28N 33°45' W 118°16'0 0.0
2015-Feb-28 14:31N 33°45' W 118°16'0 0.0
2015-Feb-28 06:10N 33°45' W 118°16'0 0.0
2015-Feb-28 05:31N 33°45' W 118°16'0 0.0
2015-Feb-28 01:31N 33°45' W 118°16'0 0.0
2015-Feb-28 00:04N 33°45' W 118°16'0 0.0
2015-Feb-27 23:29N 33°45' W 118°16'0 0.0
2015-Feb-27 22:33N 33°45' W 118°16'0 0.0
2015-Feb-27 21:30N 33°45' W 118°16'0 0.0
2015-Feb-27 16:33N 33°45' W 118°16'0 0.0
2015-Feb-26 03:34N 33°45' W 118°16'0 0.0
2015-Feb-26 02:33N 33°45' W 118°16'1817.7
2015-Feb-26 01:33N 33°27' W 118°18'5 5.4
2015-Feb-26 00:33N 33°25' W 118°24'1010.1
2015-Feb-25 23:34N 33°35' W 118°21'1010.2
2015-Feb-25 22:33N 33°45' W 118°16'0 0.0
2015-Feb-25 21:34N 33°45' W 118°16'1 0.8
2015-Feb-25 20:33N 33°44' W 118°17'2311.4
2015-Feb-25 18:33N 33°21' W 118°19'2412.0
2015-Feb-25 16:33N 33°45' W 118°16'0 0.0
2015-Feb-25 15:22N 33°45' W 118°16'0 0.0
2015-Feb-25 14:28N 33°45' W 118°16'0 0.0
2015-Feb-25 13:32N 33°45' W 118°16'0 0.0
2015-Feb-24 03:11N 33°45' W 118°16'24 2.7
2015-Feb-23 18:12N 33°21' W 118°19'24 8.3
2015-Feb-23 15:16N 33°45' W 118°16'  
2015-Feb-21 05:07N 33°45' W 118°16'0 0.0
2015-Feb-21 04:03N 33°45' W 118°16'  

Dump ship's entire track history